Time;durP1;ratioP1;P1;durP2;ratioP2;P2;SDS_P1;SDS_P2;PMS_P1;PMS_P2;Temp;Humidity;BMP_temperature;BMP_pressure;BME280_temperature;BME280_humidity;BME280_pressure;Samples;Min_cycle;Max_cycle;Signal;HPM_P1;HPM_P2
2021/01/22 00:00:16;;;;;;;1.45;1.05;;;;;;;;;;5093867;28;20237;-64
2021/01/22 00:02:43;;;;;;;1.20;1.10;;;;;;;;;;5095767;28;20200;-64
2021/01/22 00:05:10;;;;;;;1.20;1.10;;;;;;;;;;5096801;28;20208;-63
2021/01/22 00:07:37;;;;;;;1.38;1.27;;;;;;;;;;5101326;28;20224;-63
2021/01/22 00:10:05;;;;;;;1.90;1.55;;;;;;;;;;5096115;28;20207;-64
2021/01/22 00:12:32;;;;;;;3.17;1.52;;;;;;;;;;5094014;28;20200;-63
2021/01/22 00:14:59;;;;;;;1.20;1.10;;;;;;;;;;5094040;28;20208;-63
2021/01/22 00:17:26;;;;;;;1.40;1.17;;;;;;;;;;5093686;28;20216;-64
2021/01/22 00:19:52;;;;;;;1.33;0.98;;;;;;;;;;5093604;28;20200;-65
2021/01/22 00:22:19;;;;;;;1.40;0.90;;;;;;;;;;5094097;28;20200;-63
2021/01/22 00:24:46;;;;;;;2.17;0.85;;;;;;;;;;5098352;28;20203;-64
2021/01/22 00:27:13;;;;;;;3.50;1.35;;;;;;;;;;5118793;28;20246;-64
2021/01/22 00:29:40;;;;;;;1.15;1.05;;;;;;;;;;5109109;28;20211;-63
2021/01/22 00:32:07;;;;;;;1.40;1.30;;;;;;;;;;5099338;28;20200;-64
2021/01/22 00:34:34;;;;;;;1.20;1.10;;;;;;;;;;5099647;28;20446;-64
2021/01/22 00:37:00;;;;;;;1.80;1.08;;;;;;;;;;5098772;28;20722;-64
2021/01/22 00:39:27;;;;;;;1.25;0.93;;;;;;;;;;5098893;28;20205;-63
2021/01/22 00:41:54;;;;;;;1.80;1.02;;;;;;;;;;5100504;28;20204;-63
2021/01/22 00:44:21;;;;;;;1.17;1.05;;;;;;;;;;5100344;28;20200;-64
2021/01/22 00:46:48;;;;;;;1.30;1.20;;;;;;;;;;5099121;28;20200;-63
2021/01/22 00:49:15;;;;;;;1.27;0.90;;;;;;;;;;5099283;28;20227;-63
2021/01/22 00:51:41;;;;;;;1.52;1.35;;;;;;;;;;5101122;28;20208;-63
2021/01/22 00:54:08;;;;;;;1.40;1.30;;;;;;;;;;5105745;28;20211;-64
2021/01/22 00:56:35;;;;;;;1.25;0.90;;;;;;;;;;5104465;28;20201;-63
2021/01/22 00:59:02;;;;;;;1.00;0.85;;;;;;;;;;5099795;28;20223;-64
2021/01/22 01:01:29;;;;;;;1.50;1.02;;;;;;;;;;5098600;28;20204;-64
2021/01/22 01:03:56;;;;;;;1.98;0.93;;;;;;;;;;5097879;28;20204;-63
2021/01/22 01:06:23;;;;;;;1.20;1.10;;;;;;;;;;5097027;28;20212;-64
2021/01/22 01:08:50;;;;;;;1.17;1.00;;;;;;;;;;5097963;28;20220;-64
2021/01/22 01:11:16;;;;;;;1.10;0.90;;;;;;;;;;5100802;28;20250;-64
2021/01/22 01:13:43;;;;;;;1.20;1.00;;;;;;;;;;5098695;28;20201;-63
2021/01/22 01:16:10;;;;;;;1.20;0.98;;;;;;;;;;5097376;28;20606;-64
2021/01/22 01:18:37;;;;;;;1.27;1.05;;;;;;;;;;5097750;28;20600;-64
2021/01/22 01:21:05;;;;;;;2.58;1.08;;;;;;;;;;5096875;28;20253;-64
2021/01/22 01:23:31;;;;;;;2.45;1.15;;;;;;;;;;5096512;28;20201;-64
2021/01/22 01:25:58;;;;;;;1.00;0.90;;;;;;;;;;5096487;28;20207;-64
2021/01/22 01:28:25;;;;;;;1.30;0.90;;;;;;;;;;5096484;28;20477;-64
2021/01/22 01:30:52;;;;;;;1.60;1.50;;;;;;;;;;5096559;28;20449;-63
2021/01/22 01:33:19;;;;;;;1.17;1.00;;;;;;;;;;5096311;28;20204;-64
2021/01/22 01:35:51;;;;;;;1.30;1.00;;;;;;;;;;5095341;28;20675;-64
2021/01/22 01:38:18;;;;;;;1.60;1.10;;;;;;;;;;5096255;28;20253;-65
2021/01/22 01:40:44;;;;;;;1.15;0.98;;;;;;;;;;5096404;28;20207;-64
2021/01/22 01:43:11;;;;;;;1.10;1.00;;;;;;;;;;5096137;28;20238;-64
2021/01/22 01:45:40;;;;;;;1.40;1.00;;;;;;;;;;5096125;28;20212;-64
2021/01/22 01:48:07;;;;;;;1.08;0.90;;;;;;;;;;5096836;28;20950;-64
2021/01/22 01:50:34;;;;;;;1.25;1.13;;;;;;;;;;5095764;28;20246;-63
2021/01/22 01:53:02;;;;;;;1.10;1.00;;;;;;;;;;5096004;28;20249;-64
2021/01/22 01:55:29;;;;;;;1.13;1.02;;;;;;;;;;5096151;28;20200;-64
2021/01/22 01:57:56;;;;;;;0.95;0.75;;;;;;;;;;5095547;28;20715;-64
2021/01/22 02:00:23;;;;;;;1.15;0.80;;;;;;;;;;5095697;28;20208;-64
2021/01/22 02:02:50;;;;;;;1.00;0.90;;;;;;;;;;5095938;28;20201;-63
2021/01/22 02:05:16;;;;;;;0.98;0.85;;;;;;;;;;5095359;28;20200;-64
2021/01/22 02:07:43;;;;;;;1.10;1.00;;;;;;;;;;5095392;28;20224;-64
2021/01/22 02:10:11;;;;;;;1.08;0.80;;;;;;;;;;5102544;28;20207;-64
2021/01/22 02:12:39;;;;;;;1.38;0.80;;;;;;;;;;5105919;28;20227;-66
2021/01/22 02:15:06;;;;;;;1.85;1.13;;;;;;;;;;5106950;28;20257;-64
2021/01/22 02:17:34;;;;;;;1.00;0.90;;;;;;;;;;5099239;28;20269;-64
2021/01/22 02:20:08;;;;;;;1.17;1.02;;;;;;;;;;5096692;28;20265;-64
2021/01/22 02:22:35;;;;;;;1.20;1.00;;;;;;;;;;5095473;28;20180;-64
2021/01/22 02:25:02;;;;;;;1.88;1.05;;;;;;;;;;5095321;28;20261;-65
2021/01/22 02:27:31;;;;;;;1.58;0.90;;;;;;;;;;5095267;28;20231;-64
2021/01/22 02:29:58;;;;;;;0.85;0.80;;;;;;;;;;5095021;28;20208;-64
2021/01/22 02:32:25;;;;;;;1.10;1.00;;;;;;;;;;5095258;28;20201;-64
2021/01/22 02:34:53;;;;;;;1.75;1.00;;;;;;;;;;5095353;28;20204;-64
2021/01/22 02:37:21;;;;;;;1.42;0.90;;;;;;;;;;5095457;28;20234;-64
2021/01/22 02:39:49;;;;;;;1.13;0.80;;;;;;;;;;5095452;28;20234;-65
2021/01/22 02:42:16;;;;;;;2.78;1.05;;;;;;;;;;5102793;28;20227;-64
2021/01/22 02:44:44;;;;;;;1.50;1.13;;;;;;;;;;5101607;28;20200;-64
2021/01/22 02:47:12;;;;;;;1.00;0.90;;;;;;;;;;5095959;28;20760;-64
2021/01/22 02:49:39;;;;;;;1.90;1.05;;;;;;;;;;5094989;28;20598;-64
2021/01/22 02:52:06;;;;;;;0.90;0.80;;;;;;;;;;5095263;28;20204;-64
2021/01/22 02:54:33;;;;;;;2.45;1.00;;;;;;;;;;5095200;28;20200;-64
2021/01/22 02:57:04;;;;;;;2.30;1.30;;;;;;;;;;5095539;28;20220;-64
2021/01/22 02:59:36;;;;;;;1.67;1.10;;;;;;;;;;5096531;28;20192;-64
2021/01/22 03:02:09;;;;;;;1.58;1.10;;;;;;;;;;5097249;28;20558;-64
2021/01/22 03:04:36;;;;;;;1.50;1.13;;;;;;;;;;5098003;28;20185;-64
2021/01/22 03:07:03;;;;;;;2.15;1.35;;;;;;;;;;5100321;28;20224;-64
2021/01/22 03:09:30;;;;;;;1.40;1.15;;;;;;;;;;5100409;28;20216;-64
2021/01/22 03:11:59;;;;;;;1.20;1.10;;;;;;;;;;5102281;28;20208;-66
2021/01/22 03:14:26;;;;;;;1.80;1.40;;;;;;;;;;5102288;28;20291;-64
2021/01/22 03:16:53;;;;;;;1.20;1.02;;;;;;;;;;5100550;28;20228;-65
2021/01/22 03:19:20;;;;;;;1.58;1.05;;;;;;;;;;5099713;28;20200;-64
2021/01/22 03:21:47;;;;;;;1.35;1.02;;;;;;;;;;5097947;28;20625;-64
2021/01/22 03:24:14;;;;;;;1.10;1.00;;;;;;;;;;5096712;28;20257;-62
2021/01/22 03:26:40;;;;;;;2.57;1.37;;;;;;;;;;5095403;28;20257;-64
2021/01/22 03:29:07;;;;;;;3.95;0.85;;;;;;;;;;5096052;28;20481;-64
2021/01/22 03:31:34;;;;;;;1.23;1.13;;;;;;;;;;5096923;28;20204;-64
2021/01/22 03:34:01;;;;;;;1.40;1.20;;;;;;;;;;5098413;28;20204;-64
2021/01/22 03:36:28;;;;;;;1.35;1.20;;;;;;;;;;5096897;28;20200;-65
2021/01/22 03:38:55;;;;;;;1.10;0.90;;;;;;;;;;5097756;28;20781;-63
2021/01/22 03:41:22;;;;;;;1.20;1.03;;;;;;;;;;5100585;28;20204;-64
2021/01/22 03:43:48;;;;;;;1.35;1.25;;;;;;;;;;5097344;28;20450;-64
2021/01/22 03:46:15;;;;;;;1.60;1.20;;;;;;;;;;5097379;28;20200;-64
2021/01/22 03:48:42;;;;;;;2.80;1.38;;;;;;;;;;5097569;28;20560;-63
2021/01/22 03:51:09;;;;;;;1.45;1.20;;;;;;;;;;5097196;28;20204;-63
2021/01/22 03:53:36;;;;;;;1.33;0.90;;;;;;;;;;5096300;28;20200;-63
2021/01/22 03:56:03;;;;;;;1.20;0.90;;;;;;;;;;5096456;28;20468;-65
2021/01/22 03:58:30;;;;;;;1.88;1.00;;;;;;;;;;5096307;28;20454;-64
2021/01/22 04:00:57;;;;;;;1.60;1.03;;;;;;;;;;5096058;28;20204;-64
2021/01/22 04:03:24;;;;;;;2.88;1.20;;;;;;;;;;5095674;28;20450;-63
2021/01/22 04:07:37;;;;;;;2.70;1.50;;;;;;;;;;5114763;27;20582;-64
2021/01/22 04:10:04;;;;;;;1.85;1.13;;;;;;;;;;5115039;28;20450;-65
2021/01/22 04:12:31;;;;;;;1.48;1.20;;;;;;;;;;5113409;28;20200;-64
2021/01/22 04:14:58;;;;;;;2.13;1.10;;;;;;;;;;5115034;28;20251;-63
2021/01/22 04:17:24;;;;;;;2.83;1.33;;;;;;;;;;5114567;28;20703;-64
2021/01/22 04:19:51;;;;;;;6.68;1.17;;;;;;;;;;5116979;28;20499;-64
2021/01/22 04:22:18;;;;;;;1.83;0.98;;;;;;;;;;5113556;28;20196;-64
2021/01/22 04:24:46;;;;;;;1.33;1.20;;;;;;;;;;5113192;28;20296;-64
2021/01/22 04:27:12;;;;;;;1.90;1.05;;;;;;;;;;5113126;28;20284;-64
2021/01/22 04:29:39;;;;;;;1.80;1.23;;;;;;;;;;5113003;28;20207;-64
2021/01/22 04:32:07;;;;;;;1.33;1.23;;;;;;;;;;5113802;28;20272;-64
2021/01/22 04:34:33;;;;;;;2.05;1.13;;;;;;;;;;5112816;28;20204;-64
2021/01/22 04:37:00;;;;;;;1.00;0.90;;;;;;;;;;5111939;28;20215;-63
2021/01/22 04:39:27;;;;;;;5.40;0.90;;;;;;;;;;5112021;28;20200;-62
2021/01/22 04:41:56;;;;;;;1.77;0.80;;;;;;;;;;5111001;28;20204;-62
2021/01/22 04:44:23;;;;;;;0.77;0.50;;;;;;;;;;5112235;28;20199;-63
2021/01/22 04:46:51;;;;;;;2.17;0.70;;;;;;;;;;5111428;28;20306;-63
2021/01/22 04:49:18;;;;;;;1.08;0.63;;;;;;;;;;5112104;28;20282;-64
2021/01/22 04:51:46;;;;;;;1.67;0.90;;;;;;;;;;5112310;28;20200;-62
2021/01/22 04:54:14;;;;;;;0.60;0.60;;;;;;;;;;5110992;28;20210;-62
2021/01/22 04:56:43;;;;;;;0.60;0.57;;;;;;;;;;5111169;28;20195;-64
2021/01/22 04:59:17;;;;;;;0.90;0.60;;;;;;;;;;5111747;28;20725;-63
2021/01/22 05:01:46;;;;;;;0.50;0.50;;;;;;;;;;5111040;28;20196;-64
2021/01/22 05:04:13;;;;;;;0.68;0.55;;;;;;;;;;5110944;28;20202;-63
2021/01/22 05:06:40;;;;;;;0.57;0.55;;;;;;;;;;5109978;28;20699;-63
2021/01/22 05:09:07;;;;;;;0.60;0.60;;;;;;;;;;5110053;28;20204;-63
2021/01/22 05:11:33;;;;;;;0.60;0.60;;;;;;;;;;5110157;28;20264;-63
2021/01/22 05:14:01;;;;;;;0.60;0.50;;;;;;;;;;5109994;28;20690;-63
2021/01/22 05:16:28;;;;;;;0.60;0.50;;;;;;;;;;5110450;28;20196;-63
2021/01/22 05:18:55;;;;;;;0.90;0.70;;;;;;;;;;5096666;28;20266;-63
2021/01/22 05:21:22;;;;;;;0.57;0.55;;;;;;;;;;5096779;28;20232;-62
2021/01/22 05:23:49;;;;;;;1.08;0.70;;;;;;;;;;5096928;28;20224;-62
2021/01/22 05:26:16;;;;;;;0.70;0.57;;;;;;;;;;5097308;28;20696;-63
2021/01/22 05:28:44;;;;;;;0.80;0.68;;;;;;;;;;5097124;28;20274;-63
2021/01/22 05:31:12;;;;;;;1.30;1.00;;;;;;;;;;5098294;28;20672;-63
2021/01/22 05:33:41;;;;;;;0.70;0.70;;;;;;;;;;5099847;28;20205;-63
2021/01/22 05:36:24;;;;;;;1.13;1.02;;;;;;;;;;5098639;28;20279;-63
2021/01/22 05:38:51;;;;;;;1.10;1.00;;;;;;;;;;5098019;28;20227;-64
2021/01/22 05:41:17;;;;;;;1.50;1.30;;;;;;;;;;5098672;28;20200;-62
2021/01/22 05:43:44;;;;;;;1.45;1.00;;;;;;;;;;5097054;28;20207;-63
2021/01/22 05:46:15;;;;;;;1.30;1.20;;;;;;;;;;5098954;28;20216;-63
2021/01/22 05:48:43;;;;;;;1.00;0.90;;;;;;;;;;5105684;28;20223;-64
2021/01/22 05:51:10;;;;;;;2.97;1.35;;;;;;;;;;5100959;28;20212;-64
2021/01/22 05:53:44;;;;;;;2.10;1.20;;;;;;;;;;5099082;28;20207;-63
2021/01/22 05:56:11;;;;;;;2.28;1.45;;;;;;;;;;5098476;28;20234;-64
2021/01/22 05:58:39;;;;;;;1.50;1.30;;;;;;;;;;5097118;28;20247;-63
2021/01/22 06:01:07;;;;;;;1.70;1.50;;;;;;;;;;5097154;28;20196;-62
2021/01/22 06:03:34;;;;;;;2.20;1.65;;;;;;;;;;5097914;28;20207;-62
2021/01/22 06:06:01;;;;;;;1.40;1.30;;;;;;;;;;5097948;28;20224;-63
2021/01/22 06:08:28;;;;;;;1.80;1.50;;;;;;;;;;5100655;28;20227;-63
2021/01/22 06:10:55;;;;;;;1.30;1.20;;;;;;;;;;5101103;28;20580;-63
2021/01/22 06:13:25;;;;;;;2.03;1.60;;;;;;;;;;5099591;28;20200;-63
2021/01/22 06:15:55;;;;;;;2.28;1.50;;;;;;;;;;5101615;28;20663;-64
2021/01/22 06:18:24;;;;;;;1.10;1.00;;;;;;;;;;5097808;28;20220;-63
2021/01/22 06:20:53;;;;;;;1.38;1.27;;;;;;;;;;5098739;28;20530;-65
2021/01/22 06:23:23;;;;;;;1.92;1.65;;;;;;;;;;5106613;28;20216;-64
2021/01/22 06:25:50;;;;;;;1.60;1.30;;;;;;;;;;5103365;28;20274;-63
2021/01/22 06:28:20;;;;;;;1.30;1.17;;;;;;;;;;5097810;28;20224;-63
2021/01/22 06:30:47;;;;;;;2.78;1.65;;;;;;;;;;5095681;28;20200;-62
2021/01/22 06:33:15;;;;;;;1.92;1.40;;;;;;;;;;5095759;28;20287;-63
2021/01/22 06:35:43;;;;;;;1.63;1.52;;;;;;;;;;5095947;28;20598;-64
2021/01/22 06:38:11;;;;;;;2.13;1.90;;;;;;;;;;5096808;28;20224;-64
2021/01/22 06:40:38;;;;;;;2.00;1.70;;;;;;;;;;5096551;28;20228;-64
2021/01/22 06:43:08;;;;;;;2.95;1.70;;;;;;;;;;5098934;28;20196;-64
2021/01/22 06:45:35;;;;;;;1.50;1.40;;;;;;;;;;5103127;28;20200;-64
2021/01/22 06:48:03;;;;;;;4.03;1.92;;;;;;;;;;5096973;28;20231;-66
2021/01/22 06:50:30;;;;;;;2.42;1.85;;;;;;;;;;5096562;28;20218;-63
2021/01/22 06:53:07;;;;;;;2.05;1.60;;;;;;;;;;5100356;28;20204;-64
2021/01/22 06:55:34;;;;;;;1.83;1.65;;;;;;;;;;5098010;28;20296;-63
2021/01/22 06:58:25;;;;;;;1.90;1.80;;;;;;;;;;5098829;28;20221;-63
2021/01/22 07:00:53;;;;;;;2.70;2.35;;;;;;;;;;5101686;28;20185;-64
2021/01/22 07:03:38;;;;;;;3.45;1.95;;;;;;;;;;5101815;28;20200;-64
2021/01/22 07:06:05;;;;;;;2.65;2.00;;;;;;;;;;5101112;28;20228;-62
2021/01/22 07:08:53;;;;;;;2.13;1.70;;;;;;;;;;5101832;28;20220;-64
2021/01/22 07:11:19;;;;;;;1.75;1.65;;;;;;;;;;5103354;28;20602;-64
2021/01/22 07:13:48;;;;;;;2.35;2.17;;;;;;;;;;5101544;28;20200;-61
2021/01/22 07:16:24;;;;;;;2.30;2.10;;;;;;;;;;5098357;28;20579;-62
2021/01/22 07:18:52;;;;;;;2.10;1.90;;;;;;;;;;5097272;28;20287;-62
2021/01/22 07:21:20;;;;;;;2.83;2.20;;;;;;;;;;5097374;28;20287;-63
2021/01/22 07:23:47;;;;;;;2.13;1.92;;;;;;;;;;5096696;28;20203;-62
2021/01/22 07:26:14;;;;;;;2.50;2.30;;;;;;;;;;5096005;28;20217;-64
2021/01/22 07:28:50;;;;;;;2.45;2.25;;;;;;;;;;5095743;28;20208;-62
2021/01/22 07:31:36;;;;;;;1.80;1.70;;;;;;;;;;5095670;28;20228;-64
2021/01/22 07:34:02;;;;;;;2.53;2.20;;;;;;;;;;5095202;28;20200;-62
2021/01/22 07:36:29;;;;;;;3.38;2.50;;;;;;;;;;5096265;28;20265;-63
2021/01/22 07:38:58;;;;;;;4.65;2.13;;;;;;;;;;5096347;28;20223;-64
2021/01/22 07:41:25;;;;;;;2.80;2.50;;;;;;;;;;5094924;28;20278;-63
2021/01/22 07:44:00;;;;;;;2.50;2.15;;;;;;;;;;5096004;28;20204;-63
2021/01/22 07:46:28;;;;;;;2.80;2.60;;;;;;;;;;5095511;28;20218;-63
2021/01/22 07:49:07;;;;;;;3.05;2.50;;;;;;;;;;5095550;28;20220;-63
2021/01/22 07:51:36;;;;;;;2.38;2.17;;;;;;;;;;5095799;28;20280;-63
2021/01/22 07:54:03;;;;;;;3.35;2.35;;;;;;;;;;5095899;28;20200;-63
2021/01/22 07:56:33;;;;;;;2.92;2.63;;;;;;;;;;5096931;28;20200;-63
2021/01/22 07:59:05;;;;;;;3.55;2.15;;;;;;;;;;5095449;28;20203;-62
2021/01/22 08:01:32;;;;;;;2.53;2.15;;;;;;;;;;5095619;28;20595;-62
2021/01/22 08:03:59;;;;;;;4.43;2.70;;;;;;;;;;5096243;28;20200;-64
2021/01/22 08:06:26;;;;;;;2.50;2.30;;;;;;;;;;5096087;28;20714;-63
2021/01/22 08:09:05;;;;;;;2.97;2.55;;;;;;;;;;5097542;28;20224;-63
2021/01/22 08:11:31;;;;;;;3.67;3.20;;;;;;;;;;5096812;28;20583;-62
2021/01/22 08:13:58;;;;;;;5.05;2.70;;;;;;;;;;5097009;28;20211;-64
2021/01/22 08:16:26;;;;;;;3.03;2.83;;;;;;;;;;5099141;28;20680;-65
2021/01/22 08:18:52;;;;;;;3.80;2.83;;;;;;;;;;5101000;28;20216;-64
2021/01/22 08:21:20;;;;;;;5.65;3.38;;;;;;;;;;5097593;28;20585;-65
2021/01/22 08:23:47;;;;;;;4.80;3.10;;;;;;;;;;5097733;28;20679;-65
2021/01/22 08:26:15;;;;;;;4.22;3.35;;;;;;;;;;5097959;28;20687;-64
2021/01/22 08:28:42;;;;;;;4.28;2.80;;;;;;;;;;5097674;28;20297;-63
2021/01/22 08:31:09;;;;;;;3.60;3.30;;;;;;;;;;5097101;28;20226;-63
2021/01/22 08:33:37;;;;;;;3.63;3.25;;;;;;;;;;5096222;28;20575;-63
2021/01/22 08:36:05;;;;;;;6.22;4.70;;;;;;;;;;5097465;28;20208;-63
2021/01/22 08:38:33;;;;;;;4.78;3.45;;;;;;;;;;5103692;28;20224;-65
2021/01/22 08:40:59;;;;;;;4.57;3.22;;;;;;;;;;5104675;28;20699;-65
2021/01/22 08:43:26;;;;;;;5.15;3.60;;;;;;;;;;5099230;28;20725;-63
2021/01/22 08:46:06;;;;;;;5.45;3.55;;;;;;;;;;5096320;28;20201;-63
2021/01/22 08:48:33;;;;;;;4.30;3.90;;;;;;;;;;5095270;28;20228;-63
2021/01/22 08:51:01;;;;;;;4.97;4.47;;;;;;;;;;5100418;28;20208;-64
2021/01/22 08:53:28;;;;;;;4.60;4.05;;;;;;;;;;5098750;28;20204;-63
2021/01/22 08:56:09;;;;;;;5.05;4.20;;;;;;;;;;5098716;28;20203;-63
2021/01/22 08:58:36;;;;;;;4.60;4.20;;;;;;;;;;5098373;28;20228;-63
2021/01/22 09:01:03;;;;;;;4.93;4.43;;;;;;;;;;5099186;28;20196;-64
2021/01/22 09:03:31;;;;;;;5.18;4.50;;;;;;;;;;5099944;28;20299;-62
2021/01/22 09:06:00;;;;;;;6.88;4.80;;;;;;;;;;5100329;28;20247;-64
2021/01/22 09:08:27;;;;;;;5.30;4.78;;;;;;;;;;5100409;28;20227;-64
2021/01/22 09:10:54;;;;;;;5.50;5.00;;;;;;;;;;5100198;28;20229;-63
2021/01/22 09:13:23;;;;;;;7.97;5.60;;;;;;;;;;5101383;28;20200;-62
2021/01/22 09:16:02;;;;;;;8.65;5.45;;;;;;;;;;5100874;28;20212;-62
2021/01/22 09:18:29;;;;;;;6.63;5.70;;;;;;;;;;5100060;28;20711;-63
2021/01/22 09:20:59;;;;;;;7.53;5.43;;;;;;;;;;5099743;28;20207;-63
2021/01/22 09:23:26;;;;;;;7.40;6.30;;;;;;;;;;5100273;28;20208;-63
2021/01/22 09:25:54;;;;;;;7.28;6.50;;;;;;;;;;5099544;28;20204;-61
2021/01/22 09:28:21;;;;;;;7.63;6.50;;;;;;;;;;5099009;28;20235;-62
2021/01/22 09:30:48;;;;;;;7.60;6.88;;;;;;;;;;5098740;28;20207;-63
2021/01/22 09:33:15;;;;;;;9.38;6.80;;;;;;;;;;5098649;28;20250;-64
2021/01/22 09:35:41;;;;;;;8.75;6.70;;;;;;;;;;5098522;28;20196;-63
2021/01/22 09:38:08;;;;;;;21.25;14.82;;;;;;;;;;5097712;28;20224;-65
2021/01/22 09:40:35;;;;;;;9.98;8.63;;;;;;;;;;5098512;28;20313;-63
2021/01/22 09:43:03;;;;;;;10.05;7.90;;;;;;;;;;5098834;28;20287;-64
2021/01/22 09:45:30;;;;;;;7.78;7.00;;;;;;;;;;5098762;28;20215;-63
2021/01/22 09:47:57;;;;;;;8.50;7.70;;;;;;;;;;5098852;28;20224;-65
2021/01/22 09:50:24;;;;;;;8.93;8.02;;;;;;;;;;5098538;28;20204;-64
2021/01/22 09:52:51;;;;;;;8.45;7.55;;;;;;;;;;5097320;28;20204;-65
2021/01/22 09:55:19;;;;;;;12.50;9.10;;;;;;;;;;5099245;28;20200;-65
2021/01/22 09:57:46;;;;;;;9.95;8.93;;;;;;;;;;5104265;28;20262;-64
2021/01/22 10:00:15;;;;;;;9.13;7.63;;;;;;;;;;5100233;28;20701;-62
2021/01/22 10:02:42;;;;;;;9.95;8.10;;;;;;;;;;5099284;28;20235;-64
2021/01/22 10:05:09;;;;;;;8.65;7.75;;;;;;;;;;5096563;28;20200;-65
2021/01/22 10:07:35;;;;;;;9.52;8.73;;;;;;;;;;5096450;28;20224;-64
2021/01/22 10:10:02;;;;;;;12.55;9.13;;;;;;;;;;5098395;28;20546;-65
2021/01/22 10:12:29;;;;;;;9.10;8.20;;;;;;;;;;5096482;28;20211;-65
2021/01/22 10:14:56;;;;;;;11.57;8.77;;;;;;;;;;5095775;28;20200;-67
2021/01/22 10:17:27;;;;;;;11.25;8.95;;;;;;;;;;5096170;28;20730;-63
2021/01/22 10:19:54;;;;;;;9.65;8.40;;;;;;;;;;5097069;28;20660;-64
2021/01/22 10:22:20;;;;;;;9.93;8.75;;;;;;;;;;5095906;28;20230;-65
2021/01/22 10:24:47;;;;;;;11.77;7.88;;;;;;;;;;5097999;28;20647;-63
2021/01/22 10:27:14;;;;;;;11.23;8.63;;;;;;;;;;5097332;28;20224;-63
2021/01/22 10:29:41;;;;;;;12.35;9.65;;;;;;;;;;5096833;28;20200;-64
2021/01/22 10:32:07;;;;;;;8.50;7.60;;;;;;;;;;5096779;28;20649;-65
2021/01/22 10:34:35;;;;;;;8.18;7.05;;;;;;;;;;5096084;28;20575;-65
2021/01/22 10:37:02;;;;;;;9.40;8.40;;;;;;;;;;5095315;28;20229;-64
2021/01/22 10:39:29;;;;;;;8.48;7.60;;;;;;;;;;5095822;28;20204;-64
2021/01/22 10:41:56;;;;;;;10.52;7.90;;;;;;;;;;5095929;28;20223;-64
2021/01/22 10:44:22;;;;;;;9.38;8.57;;;;;;;;;;5097869;28;20618;-61
2021/01/22 10:46:49;;;;;;;10.77;8.40;;;;;;;;;;5095746;28;20217;-65
2021/01/22 10:49:16;;;;;;;7.80;7.00;;;;;;;;;;5096171;28;20200;-65
2021/01/22 10:51:44;;;;;;;9.15;8.05;;;;;;;;;;5098001;28;20253;-65
2021/01/22 10:54:11;;;;;;;8.20;7.25;;;;;;;;;;5095849;28;20200;-63
2021/01/22 10:56:37;;;;;;;8.60;7.30;;;;;;;;;;5096052;28;20272;-63
2021/01/22 10:59:04;;;;;;;8.10;7.30;;;;;;;;;;5096289;28;20200;-63
2021/01/22 11:01:31;;;;;;;7.88;6.82;;;;;;;;;;5095930;28;20197;-64
2021/01/22 11:03:57;;;;;;;7.60;6.38;;;;;;;;;;5095725;28;20200;-63
2021/01/22 11:06:24;;;;;;;7.15;6.45;;;;;;;;;;5095276;28;20223;-63
2021/01/22 11:08:52;;;;;;;9.35;6.72;;;;;;;;;;5096404;28;20224;-63
2021/01/22 11:11:19;;;;;;;11.63;6.57;;;;;;;;;;5095465;28;20219;-63
2021/01/22 11:13:45;;;;;;;9.13;7.38;;;;;;;;;;5094971;28;20207;-64
2021/01/22 11:16:12;;;;;;;11.05;6.88;;;;;;;;;;5095129;28;20193;-65
2021/01/22 11:18:39;;;;;;;11.10;6.90;;;;;;;;;;5095392;28;20217;-62
2021/01/22 11:21:06;;;;;;;8.68;7.32;;;;;;;;;;5094484;28;20615;-63
2021/01/22 11:23:33;;;;;;;8.65;7.50;;;;;;;;;;5099238;28;20226;-62
2021/01/22 11:26:01;;;;;;;16.50;7.60;;;;;;;;;;5094817;28;20699;-65
2021/01/22 11:28:28;;;;;;;9.23;6.85;;;;;;;;;;5094733;28;20246;-62
2021/01/22 11:30:55;;;;;;;8.50;7.07;;;;;;;;;;5094456;28;20570;-62
2021/01/22 11:33:21;;;;;;;7.30;6.60;;;;;;;;;;5095513;28;20291;-63
2021/01/22 11:35:48;;;;;;;7.80;7.10;;;;;;;;;;5094614;28;20250;-63
2021/01/22 11:38:15;;;;;;;6.80;6.10;;;;;;;;;;5094499;28;20270;-62
2021/01/22 11:40:41;;;;;;;8.20;6.50;;;;;;;;;;5094255;28;20204;-63
2021/01/22 11:43:09;;;;;;;8.75;5.90;;;;;;;;;;5093827;28;20644;-63
2021/01/22 11:45:36;;;;;;;6.68;5.97;;;;;;;;;;5093861;28;20204;-63
2021/01/22 11:48:03;;;;;;;8.20;6.88;;;;;;;;;;5094791;28;20246;-62
2021/01/22 11:50:32;;;;;;;7.35;6.45;;;;;;;;;;5095549;28;20254;-62
2021/01/22 11:52:59;;;;;;;10.23;6.70;;;;;;;;;;5095315;28;20196;-62
2021/01/22 11:55:26;;;;;;;6.97;6.10;;;;;;;;;;5095558;28;20273;-62
2021/01/22 11:57:52;;;;;;;8.32;6.10;;;;;;;;;;5094873;28;20565;-63
2021/01/22 12:00:21;;;;;;;8.75;6.05;;;;;;;;;;5094607;28;20201;-63
2021/01/22 12:02:48;;;;;;;7.80;6.88;;;;;;;;;;5097686;28;20204;-63
2021/01/22 12:05:15;;;;;;;9.93;6.28;;;;;;;;;;5099196;28;20207;-62
2021/01/22 12:07:42;;;;;;;8.77;5.78;;;;;;;;;;5094688;28;20228;-63
2021/01/22 12:10:09;;;;;;;9.15;7.07;;;;;;;;;;5094549;28;20200;-64
2021/01/22 12:12:36;;;;;;;7.68;5.80;;;;;;;;;;5094687;28;20211;-63
2021/01/22 12:15:02;;;;;;;7.35;6.63;;;;;;;;;;5095930;28;20570;-62
2021/01/22 12:17:30;;;;;;;6.40;5.63;;;;;;;;;;5094601;28;20228;-63
2021/01/22 12:19:57;;;;;;;7.47;6.78;;;;;;;;;;5094636;28;20204;-61
2021/01/22 12:22:24;;;;;;;8.32;6.15;;;;;;;;;;5094622;28;20223;-60
2021/01/22 12:24:50;;;;;;;7.38;6.68;;;;;;;;;;5094179;28;20208;-63
2021/01/22 12:27:17;;;;;;;7.00;6.30;;;;;;;;;;5095688;28;20323;-66
2021/01/22 12:29:44;;;;;;;8.07;6.65;;;;;;;;;;5099215;28;20668;-62
2021/01/22 12:32:11;;;;;;;6.75;6.15;;;;;;;;;;5099109;28;20207;-65
2021/01/22 12:34:39;;;;;;;9.60;6.60;;;;;;;;;;5099001;28;20197;-65
2021/01/22 12:37:05;;;;;;;7.25;5.53;;;;;;;;;;5100007;28;20307;-64
2021/01/22 12:39:32;;;;;;;9.25;6.18;;;;;;;;;;5102214;28;20200;-64
2021/01/22 12:41:59;;;;;;;6.90;6.28;;;;;;;;;;5104120;28;20204;-65
2021/01/22 12:44:26;;;;;;;9.25;8.23;;;;;;;;;;5108403;28;20200;-64
2021/01/22 12:46:53;;;;;;;7.00;6.40;;;;;;;;;;5108855;28;20215;-66
2021/01/22 12:49:19;;;;;;;8.43;7.55;;;;;;;;;;5105650;28;20211;-63
2021/01/22 12:51:47;;;;;;;8.55;6.78;;;;;;;;;;5099677;28;20200;-64
2021/01/22 12:54:14;;;;;;;7.22;6.47;;;;;;;;;;5098675;28;20204;-63
2021/01/22 12:56:41;;;;;;;7.25;6.55;;;;;;;;;;5098434;28;20204;-64
2021/01/22 12:59:07;;;;;;;7.28;6.55;;;;;;;;;;5098722;28;20620;-64
2021/01/22 13:01:34;;;;;;;6.32;5.70;;;;;;;;;;5101097;28;20204;-65
2021/01/22 13:04:01;;;;;;;12.27;7.13;;;;;;;;;;5103943;28;20245;-64
2021/01/22 13:06:28;;;;;;;10.02;6.68;;;;;;;;;;5099595;28;20227;-64
2021/01/22 13:08:56;;;;;;;6.07;5.47;;;;;;;;;;5100518;28;20224;-64
2021/01/22 13:11:25;;;;;;;6.65;5.90;;;;;;;;;;5099556;28;20291;-66
2021/01/22 13:13:52;;;;;;;6.55;5.30;;;;;;;;;;5100941;28;20207;-64
2021/01/22 13:16:20;;;;;;;5.90;5.28;;;;;;;;;;5099778;28;20200;-64
2021/01/22 13:18:47;;;;;;;8.90;5.93;;;;;;;;;;5098166;28;20224;-65
2021/01/22 13:21:14;;;;;;;5.68;5.18;;;;;;;;;;5099042;28;20204;-63
2021/01/22 13:23:41;;;;;;;7.85;5.78;;;;;;;;;;5097609;28;20208;-65
2021/01/22 13:26:09;;;;;;;5.95;5.35;;;;;;;;;;5097287;28;20302;-64
2021/01/22 13:28:38;;;;;;;7.47;5.03;;;;;;;;;;5097269;28;20247;-63
2021/01/22 13:31:05;;;;;;;11.07;6.43;;;;;;;;;;5096837;28;20209;-62
2021/01/22 13:33:33;;;;;;;5.85;5.35;;;;;;;;;;5096599;28;20594;-64
2021/01/22 13:36:00;;;;;;;9.65;6.05;;;;;;;;;;5096666;28;20212;-63
2021/01/22 13:38:27;;;;;;;6.60;6.00;;;;;;;;;;5096122;28;20224;-65
2021/01/22 13:40:53;;;;;;;6.40;5.80;;;;;;;;;;5095997;28;20624;-65
2021/01/22 13:43:21;;;;;;;6.35;5.75;;;;;;;;;;5096240;28;20201;-64
2021/01/22 13:45:49;;;;;;;6.20;5.60;;;;;;;;;;5096260;28;20201;-63
2021/01/22 13:48:18;;;;;;;10.77;6.10;;;;;;;;;;5096232;28;20356;-65
2021/01/22 13:50:45;;;;;;;7.95;6.07;;;;;;;;;;5096529;28;20203;-68
2021/01/22 13:53:12;;;;;;;9.15;5.95;;;;;;;;;;5102792;28;20196;-65
2021/01/22 13:55:39;;;;;;;7.32;6.35;;;;;;;;;;5097804;28;20216;-65
2021/01/22 13:58:06;;;;;;;6.82;6.20;;;;;;;;;;5097737;28;20216;-65
2021/01/22 14:00:33;;;;;;;8.65;6.75;;;;;;;;;;5096665;28;20196;-65
2021/01/22 14:03:00;;;;;;;8.60;6.10;;;;;;;;;;5096090;28;20204;-65
2021/01/22 14:05:27;;;;;;;7.05;6.10;;;;;;;;;;5096206;28;20208;-63
2021/01/22 14:07:54;;;;;;;7.28;6.57;;;;;;;;;;5096524;28;20224;-64
2021/01/22 14:10:20;;;;;;;6.57;5.95;;;;;;;;;;5096505;28;20196;-64
2021/01/22 14:12:47;;;;;;;9.13;6.70;;;;;;;;;;5096057;28;20672;-63
2021/01/22 14:15:14;;;;;;;8.48;6.30;;;;;;;;;;5095727;28;20215;-62
2021/01/22 14:17:41;;;;;;;8.43;6.40;;;;;;;;;;5095741;28;20269;-63
2021/01/22 14:20:09;;;;;;;15.60;6.90;;;;;;;;;;5095584;28;20201;-61
2021/01/22 14:22:39;;;;;;;8.50;6.55;;;;;;;;;;5095176;28;20664;-65
2021/01/22 14:25:07;;;;;;;11.25;6.68;;;;;;;;;;5095331;28;20601;-65
2021/01/22 14:27:34;;;;;;;7.75;6.70;;;;;;;;;;5094946;28;20228;-64
2021/01/22 14:30:00;;;;;;;7.60;6.40;;;;;;;;;;5095123;28;20257;-63
2021/01/22 14:32:27;;;;;;;8.68;7.20;;;;;;;;;;5095212;28;20196;-63
2021/01/22 14:34:55;;;;;;;12.68;7.35;;;;;;;;;;5095462;28;20225;-64
2021/01/22 14:37:22;;;;;;;9.68;6.60;;;;;;;;;;5095347;28;20224;-63
2021/01/22 14:39:49;;;;;;;11.85;7.00;;;;;;;;;;5094728;28;20664;-65
2021/01/22 14:42:16;;;;;;;7.03;5.65;;;;;;;;;;5094866;28;20583;-66
2021/01/22 14:44:43;;;;;;;9.05;6.35;;;;;;;;;;5095316;28;20257;-65
2021/01/22 14:47:09;;;;;;;8.20;7.40;;;;;;;;;;5094377;28;20247;-67